createdAt,value
2022-10-07T00:01:03.870Z,14.50
2022-10-07T00:03:32.215Z,14.50
2022-10-07T00:06:02.603Z,14.40
2022-10-07T00:08:30.786Z,14.50
2022-10-07T00:10:58.818Z,14.50
2022-10-07T00:13:26.735Z,14.60
2022-10-07T00:15:54.459Z,14.60
2022-10-07T00:18:23.458Z,14.60
2022-10-07T00:20:51.127Z,14.60
2022-10-07T00:23:18.804Z,14.70
2022-10-07T00:25:46.511Z,14.80
2022-10-07T00:28:14.202Z,14.90
2022-10-07T00:30:41.947Z,14.90
2022-10-07T00:33:11.839Z,14.90
2022-10-07T00:35:40.855Z,14.80
2022-10-07T00:38:08.534Z,14.90
2022-10-07T00:40:36.224Z,14.90
2022-10-07T00:43:19.804Z,14.90
2022-10-07T00:45:49.205Z,14.90
2022-10-07T00:48:20.480Z,14.90
2022-10-07T00:50:51.657Z,14.90
2022-10-07T00:53:19.756Z,14.90
2022-10-07T00:55:47.475Z,14.90
2022-10-07T00:58:15.676Z,14.80
2022-10-07T01:00:44.416Z,14.80
2022-10-07T01:03:13.186Z,14.70
2022-10-07T01:05:40.892Z,14.60
2022-10-07T01:08:14.021Z,14.60
2022-10-07T01:10:53.674Z,14.60
2022-10-07T01:13:32.859Z,14.70
2022-10-07T01:16:07.402Z,14.60
2022-10-07T01:18:42.854Z,14.70
2022-10-07T01:21:21.483Z,14.70
2022-10-07T01:24:02.922Z,14.70
2022-10-07T01:26:51.588Z,14.70
2022-10-07T01:29:23.756Z,14.70
2022-10-07T01:31:57.482Z,14.70
2022-10-07T01:34:26.585Z,14.80
2022-10-07T01:36:58.969Z,14.80
2022-10-07T01:39:33.044Z,14.60
2022-10-07T01:42:03.212Z,14.60
2022-10-07T01:44:31.601Z,14.60
2022-10-07T01:47:00.096Z,14.70
2022-10-07T01:49:27.913Z,14.70
2022-10-07T01:52:12.616Z,14.70
2022-10-07T01:54:50.549Z,14.70
2022-10-07T01:57:28.339Z,14.60
2022-10-07T02:00:07.352Z,14.60
2022-10-07T02:02:58.249Z,14.70
2022-10-07T02:05:37.517Z,14.70
2022-10-07T02:08:21.254Z,14.70
2022-10-07T02:11:02.499Z,14.80
2022-10-07T02:13:37.557Z,14.70
2022-10-07T02:16:11.013Z,14.70
2022-10-07T02:18:41.629Z,14.80
2022-10-07T02:21:11.093Z,14.70
2022-10-07T02:23:40.957Z,14.80
2022-10-07T02:26:12.770Z,14.60
2022-10-07T02:28:44.531Z,14.60
2022-10-07T02:31:18.004Z,14.50
2022-10-07T02:33:51.013Z,14.60
2022-10-07T02:36:25.894Z,14.60
2022-10-07T02:38:54.093Z,14.70
2022-10-07T02:41:35.238Z,14.80
2022-10-07T02:44:18.027Z,14.90
2022-10-07T02:46:49.599Z,14.90
2022-10-07T02:49:20.015Z,14.80
2022-10-07T02:51:53.690Z,14.80
2022-10-07T02:54:25.687Z,14.80
2022-10-07T02:56:54.850Z,14.80
2022-10-07T02:59:25.351Z,14.80
2022-10-07T03:01:56.491Z,14.80
2022-10-07T03:04:24.522Z,14.80
2022-10-07T03:06:53.164Z,14.80
2022-10-07T03:09:23.487Z,14.80
2022-10-07T03:11:56.178Z,14.80
2022-10-07T03:14:25.539Z,14.80
2022-10-07T03:16:56.490Z,14.80
2022-10-07T03:19:25.913Z,14.80
2022-10-07T03:21:56.023Z,14.70
2022-10-07T03:24:24.813Z,14.70
2022-10-07T03:26:53.513Z,14.70
2022-10-07T03:29:21.257Z,14.70
2022-10-07T03:31:50.835Z,14.60
2022-10-07T03:34:18.523Z,14.70
2022-10-07T03:36:48.902Z,14.70
2022-10-07T03:39:17.405Z,14.60
2022-10-07T03:41:45.418Z,14.50
2022-10-07T03:44:14.423Z,14.50
2022-10-07T03:46:42.313Z,14.50
2022-10-07T03:49:11.803Z,14.60
2022-10-07T03:51:40.274Z,14.60
2022-10-07T03:54:09.766Z,14.70
2022-10-07T03:56:40.011Z,14.70
2022-10-07T03:59:07.774Z,14.70
2022-10-07T04:01:35.884Z,14.60
2022-10-07T04:04:07.472Z,14.60
2022-10-07T04:06:38.762Z,14.60
2022-10-07T04:09:10.450Z,14.70
2022-10-07T04:11:40.491Z,14.70
2022-10-07T04:14:08.772Z,14.70
2022-10-07T04:16:38.408Z,14.70
2022-10-07T04:19:08.544Z,14.70
2022-10-07T04:21:37.849Z,14.70
2022-10-07T04:24:05.806Z,14.70
2022-10-07T04:26:33.755Z,14.70
2022-10-07T04:29:01.526Z,14.70
2022-10-07T04:31:29.877Z,14.70
2022-10-07T04:34:02.686Z,14.60
2022-10-07T04:36:35.165Z,14.70
2022-10-07T04:39:07.509Z,14.70
2022-10-07T04:41:38.891Z,14.70
2022-10-07T04:44:11.863Z,14.60
2022-10-07T04:46:46.906Z,14.70
2022-10-07T04:49:16.840Z,14.70
2022-10-07T04:51:44.842Z,14.70
2022-10-07T04:54:14.098Z,14.70
2022-10-07T04:56:49.613Z,14.70
2022-10-07T04:59:23.451Z,14.70
2022-10-07T05:01:52.314Z,14.70
2022-10-07T05:04:20.287Z,14.80
2022-10-07T05:06:48.378Z,14.80
2022-10-07T05:09:17.941Z,14.80
2022-10-07T05:11:48.126Z,14.80
2022-10-07T05:14:21.201Z,14.80
2022-10-07T05:16:50.130Z,14.80
2022-10-07T05:19:18.750Z,14.80
2022-10-07T05:21:46.765Z,14.80
2022-10-07T05:24:15.404Z,14.80
2022-10-07T05:26:45.013Z,14.80
2022-10-07T05:29:13.069Z,14.80
2022-10-07T05:31:45.384Z,14.80
2022-10-07T05:34:16.370Z,14.50
2022-10-07T05:36:44.774Z,14.50
2022-10-07T05:39:14.443Z,14.40
2022-10-07T05:41:49.984Z,14.30
2022-10-07T05:44:21.545Z,14.20
2022-10-07T05:46:51.928Z,14.20
2022-10-07T05:49:20.217Z,14.30
2022-10-07T05:51:48.445Z,14.20
2022-10-07T05:54:16.302Z,14.00
2022-10-07T05:56:45.725Z,14.00
2022-10-07T05:59:17.221Z,14.10
2022-10-07T06:01:46.625Z,14.30
2022-10-07T06:04:19.869Z,14.30
2022-10-07T06:06:49.661Z,14.40
2022-10-07T06:09:32.210Z,14.50
2022-10-07T06:12:18.236Z,14.50
2022-10-07T06:14:50.389Z,14.60
2022-10-07T06:17:18.154Z,14.60
2022-10-07T06:19:47.528Z,14.60
2022-10-07T06:22:17.067Z,14.70
2022-10-07T06:24:45.223Z,14.70
2022-10-07T06:27:13.268Z,14.70
2022-10-07T06:29:42.395Z,14.70
2022-10-07T06:32:11.468Z,14.70
2022-10-07T06:34:40.625Z,14.70
2022-10-07T06:37:08.392Z,14.80
2022-10-07T06:39:36.138Z,14.80
2022-10-07T06:42:04.117Z,14.80
2022-10-07T06:44:40.589Z,14.90
2022-10-07T06:47:13.078Z,14.80
2022-10-07T06:49:43.043Z,14.90
2022-10-07T06:52:12.196Z,15.00
2022-10-07T06:54:41.548Z,15.00
2022-10-07T06:57:33.126Z,15.10
2022-10-07T06:59:57.558Z,15.20
2022-10-07T07:02:26.694Z,15.30
2022-10-07T07:04:57.777Z,15.40
2022-10-07T07:07:26.236Z,15.50
2022-10-07T07:09:54.447Z,15.60
2022-10-07T07:12:25.159Z,15.70
2022-10-07T07:14:53.692Z,15.70
2022-10-07T07:17:22.459Z,15.80
2022-10-07T07:19:51.629Z,15.90
2022-10-07T07:22:20.155Z,16.20
2022-10-07T07:24:49.811Z,16.60
2022-10-07T07:27:17.667Z,17.00
2022-10-07T07:29:46.281Z,17.40
2022-10-07T07:32:14.103Z,18.00
2022-10-07T07:34:44.142Z,18.50
2022-10-07T07:37:19.921Z,18.70
2022-10-07T07:39:51.761Z,18.80
2022-10-07T07:42:20.874Z,19.10
2022-10-07T07:44:48.886Z,19.30
2022-10-07T07:47:20.942Z,19.70
2022-10-07T07:49:50.089Z,20.10
2022-10-07T07:52:25.994Z,20.40
2022-10-07T07:54:58.132Z,20.70
2022-10-07T07:57:28.020Z,20.70
2022-10-07T08:00:02.109Z,21.00
2022-10-07T08:02:44.738Z,21.40
2022-10-07T08:05:23.733Z,21.90
2022-10-07T08:07:56.549Z,22.40
2022-10-07T08:10:26.339Z,22.90
2022-10-07T08:12:55.855Z,23.20
2022-10-07T08:15:24.870Z,23.50
2022-10-07T08:17:57.194Z,23.50
2022-10-07T08:20:24.925Z,23.20
2022-10-07T08:22:58.818Z,23.20
2022-10-07T08:25:29.482Z,23.20
2022-10-07T08:28:03.889Z,23.30
2022-10-07T08:30:34.769Z,23.50
2022-10-07T08:33:05.350Z,23.80
2022-10-07T08:35:35.473Z,23.90
2022-10-07T08:38:04.541Z,23.90
2022-10-07T08:40:35.341Z,23.80
2022-10-07T08:43:04.334Z,23.90
2022-10-07T08:45:34.538Z,24.10
2022-10-07T08:48:08.492Z,24.20
2022-10-07T08:50:47.848Z,24.30
2022-10-07T08:53:21.660Z,24.90
2022-10-07T08:55:57.420Z,25.80
2022-10-07T08:58:40.939Z,26.70
2022-10-07T09:01:20.008Z,27.40
2022-10-07T09:03:58.071Z,27.80
2022-10-07T09:06:30.440Z,27.80
2022-10-07T09:09:04.131Z,28.20
2022-10-07T09:11:35.619Z,28.30
2022-10-07T09:14:11.557Z,28.60
2022-10-07T09:16:43.909Z,28.60
2022-10-07T09:19:18.328Z,28.80
2022-10-07T09:21:50.366Z,29.10
2022-10-07T09:24:23.073Z,29.70
2022-10-07T09:26:55.061Z,30.00
2022-10-07T09:29:26.322Z,30.20
2022-10-07T09:31:54.752Z,30.70
2022-10-07T09:34:24.917Z,30.80
2022-10-07T09:37:16.413Z,31.30
2022-10-07T09:39:46.525Z,31.20
2022-10-07T09:42:32.107Z,31.30
2022-10-07T09:45:02.669Z,30.70
2022-10-07T09:47:36.933Z,30.70
2022-10-07T09:50:05.595Z,30.20
2022-10-07T09:52:33.556Z,30.50
2022-10-07T09:55:32.561Z,30.40
2022-10-07T09:58:03.021Z,30.70
2022-10-07T10:00:31.382Z,30.70
2022-10-07T10:03:06.165Z,30.40
2022-10-07T10:05:36.043Z,30.70
2022-10-07T10:08:07.185Z,30.80
2022-10-07T10:10:36.553Z,30.40
2022-10-07T10:13:07.430Z,29.70
2022-10-07T10:15:41.521Z,29.30
2022-10-07T10:18:27.429Z,29.20
2022-10-07T10:20:55.482Z,29.30
2022-10-07T10:23:32.357Z,28.60
2022-10-07T10:26:33.695Z,28.70
2022-10-07T10:29:14.921Z,28.40
2022-10-07T10:32:02.672Z,28.50
2022-10-07T10:34:38.256Z,29.00
2022-10-07T10:37:14.908Z,29.50
2022-10-07T10:39:57.334Z,29.70
2022-10-07T10:42:32.217Z,30.50
2022-10-07T10:45:15.289Z,31.10
2022-10-07T10:48:00.683Z,31.40
2022-10-07T10:50:33.007Z,31.90
2022-10-07T10:53:09.643Z,31.80
2022-10-07T10:56:00.190Z,31.30
2022-10-07T10:58:42.766Z,30.80
2022-10-07T11:01:19.188Z,30.80
2022-10-07T11:04:05.516Z,31.10
2022-10-07T11:06:35.292Z,31.50
2022-10-07T11:09:03.817Z,31.50
2022-10-07T11:11:34.190Z,30.80
2022-10-07T11:14:13.937Z,31.00
2022-10-07T11:16:47.121Z,31.30
2022-10-07T11:19:19.853Z,31.10
2022-10-07T11:21:52.618Z,31.00
2022-10-07T11:24:24.455Z,31.50
2022-10-07T11:26:57.395Z,31.40
2022-10-07T11:29:38.509Z,31.30
2022-10-07T11:32:13.738Z,31.90
2022-10-07T11:34:52.173Z,31.70
2022-10-07T11:37:28.074Z,30.90
2022-10-07T11:39:57.822Z,30.20
2022-10-07T11:42:28.764Z,29.70
2022-10-07T11:45:02.991Z,29.30
2022-10-07T11:47:37.266Z,28.80
2022-10-07T11:50:10.160Z,27.70
2022-10-07T11:52:43.104Z,26.50
2022-10-07T11:55:19.850Z,25.70
2022-10-07T11:57:55.565Z,25.00
2022-10-07T12:00:27.917Z,24.40
2022-10-07T12:03:11.486Z,23.90
2022-10-07T12:05:58.789Z,23.50
2022-10-07T12:08:30.832Z,23.30
2022-10-07T12:11:37.918Z,23.20
2022-10-07T12:14:31.305Z,23.00
2022-10-07T12:16:59.254Z,22.70
2022-10-07T12:19:26.966Z,22.50
2022-10-07T12:22:17.708Z,22.50
2022-10-07T12:24:47.789Z,22.50
2022-10-07T12:27:17.259Z,22.20
2022-10-07T12:29:50.727Z,22.10
2022-10-07T12:32:48.773Z,22.10
2022-10-07T12:35:50.057Z,22.10
2022-10-07T12:38:25.590Z,21.90
2022-10-07T12:41:15.491Z,21.70
2022-10-07T12:43:50.855Z,21.60
2022-10-07T12:46:23.000Z,21.70
2022-10-07T12:48:59.378Z,21.70
2022-10-07T12:51:29.531Z,21.70
2022-10-07T12:53:59.889Z,21.80
2022-10-07T12:56:30.059Z,21.70
2022-10-07T12:59:26.366Z,21.80
2022-10-07T13:02:21.174Z,21.70
2022-10-07T13:05:05.743Z,21.70
2022-10-07T13:08:03.765Z,21.70
2022-10-07T13:10:57.448Z,21.70
2022-10-07T13:13:31.757Z,21.60
2022-10-07T13:16:04.794Z,21.70
2022-10-07T13:18:41.417Z,21.80
2022-10-07T13:21:21.935Z,21.90
2022-10-07T13:23:55.853Z,21.90
2022-10-07T13:26:25.843Z,22.00
2022-10-07T13:28:56.009Z,22.00
2022-10-07T13:31:25.891Z,22.00
2022-10-07T13:33:59.222Z,21.90
2022-10-07T13:36:29.305Z,21.80
2022-10-07T13:39:13.190Z,21.80
2022-10-07T13:41:44.482Z,21.80
2022-10-07T13:44:16.430Z,21.70
2022-10-07T13:46:54.841Z,21.70
2022-10-07T13:49:27.243Z,21.70
2022-10-07T13:51:57.284Z,21.70
2022-10-07T13:54:27.831Z,21.70
2022-10-07T13:56:55.906Z,21.80
2022-10-07T13:59:24.702Z,21.80
2022-10-07T14:01:54.688Z,21.70
2022-10-07T14:04:27.127Z,21.70
2022-10-07T14:06:59.983Z,21.60
2022-10-07T14:09:38.393Z,21.60
2022-10-07T14:12:09.452Z,21.70
2022-10-07T14:14:39.993Z,21.70
2022-10-07T14:17:12.157Z,21.80
2022-10-07T14:19:41.458Z,21.70
2022-10-07T14:22:19.505Z,21.70
2022-10-07T14:24:58.366Z,21.70
2022-10-07T14:27:55.881Z,21.70
2022-10-07T14:30:29.410Z,21.50
2022-10-07T14:33:16.154Z,21.50
2022-10-07T14:35:49.431Z,21.50
2022-10-07T14:38:26.221Z,21.50
2022-10-07T14:40:54.442Z,21.70
2022-10-07T14:43:22.232Z,21.70
2022-10-07T14:45:50.846Z,21.80
2022-10-07T14:48:18.986Z,21.80
2022-10-07T14:50:48.147Z,21.70
2022-10-07T14:53:17.590Z,21.60
2022-10-07T14:55:48.558Z,21.50
2022-10-07T14:58:18.393Z,21.40
2022-10-07T15:00:46.364Z,21.40
2022-10-07T15:03:15.571Z,21.30
2022-10-07T15:05:43.689Z,21.40
2022-10-07T15:08:13.204Z,21.40
2022-10-07T15:10:42.135Z,21.40
2022-10-07T15:13:13.415Z,21.40
2022-10-07T15:15:43.434Z,21.40
2022-10-07T15:18:11.627Z,21.40
2022-10-07T15:20:39.893Z,21.40
2022-10-07T15:23:08.538Z,21.50
2022-10-07T15:25:42.759Z,21.30
2022-10-07T15:28:17.462Z,21.40
2022-10-07T15:30:45.359Z,21.40
2022-10-07T15:33:14.712Z,21.40
2022-10-07T15:35:44.528Z,21.40
2022-10-07T15:38:12.433Z,21.20
2022-10-07T15:40:53.803Z,21.20
2022-10-07T15:43:22.918Z,21.10
2022-10-07T15:45:51.303Z,21.00
2022-10-07T15:48:23.127Z,21.00
2022-10-07T15:50:54.180Z,21.00
2022-10-07T15:53:25.305Z,21.00
2022-10-07T15:55:59.085Z,21.00
2022-10-07T15:58:31.101Z,20.80
2022-10-07T16:01:02.157Z,20.80
2022-10-07T16:03:40.199Z,20.70
2022-10-07T16:06:10.565Z,20.60
2022-10-07T16:08:40.719Z,20.50
2022-10-07T16:11:15.529Z,20.40
2022-10-07T16:13:52.702Z,20.30
2022-10-07T16:16:27.374Z,20.20
2022-10-07T16:19:00.633Z,20.00
2022-10-07T16:21:33.674Z,19.90
2022-10-07T16:24:13.034Z,19.70
2022-10-07T16:26:45.309Z,19.60
2022-10-07T16:29:33.985Z,19.50
2022-10-07T16:32:02.265Z,19.30
2022-10-07T16:34:30.656Z,19.10
2022-10-07T16:36:59.166Z,18.90
2022-10-07T16:39:26.973Z,18.80
2022-10-07T16:41:56.375Z,18.70
2022-10-07T16:44:24.707Z,18.70
2022-10-07T16:46:56.399Z,18.60
2022-10-07T16:49:26.068Z,18.60
2022-10-07T16:52:00.068Z,18.50
2022-10-07T16:54:30.229Z,18.40
2022-10-07T16:56:59.331Z,18.10
2022-10-07T16:59:27.322Z,18.00
2022-10-07T17:01:59.955Z,18.00
2022-10-07T17:04:27.953Z,18.00
2022-10-07T17:06:55.636Z,17.90
2022-10-07T17:09:24.612Z,17.80
2022-10-07T17:11:52.760Z,17.70
2022-10-07T17:14:22.813Z,17.60
2022-10-07T17:16:52.341Z,17.60
2022-10-07T17:19:21.953Z,17.40
2022-10-07T17:21:50.827Z,17.40
2022-10-07T17:24:20.108Z,17.20
2022-10-07T17:26:48.373Z,17.10
2022-10-07T17:29:18.091Z,17.10
2022-10-07T17:31:50.303Z,17.00
2022-10-07T17:34:24.306Z,17.10
2022-10-07T17:36:52.559Z,16.90
2022-10-07T17:39:20.389Z,16.90
2022-10-07T17:41:48.982Z,16.80
2022-10-07T17:44:16.779Z,16.70
2022-10-07T17:46:44.612Z,16.70
2022-10-07T17:49:14.346Z,16.60
2022-10-07T17:51:43.633Z,16.60
2022-10-07T17:54:13.454Z,16.60
2022-10-07T17:56:44.249Z,16.60
2022-10-07T17:59:12.245Z,16.50
2022-10-07T18:01:41.183Z,16.40
2022-10-07T18:04:12.207Z,16.40
2022-10-07T18:06:43.057Z,16.30
2022-10-07T18:09:14.917Z,16.30
2022-10-07T18:11:56.755Z,16.20
2022-10-07T18:14:38.778Z,16.20
2022-10-07T18:17:08.065Z,16.10
2022-10-07T18:19:36.114Z,16.00
2022-10-07T18:22:07.601Z,16.00
2022-10-07T18:24:37.238Z,16.00
2022-10-07T18:27:05.087Z,15.90
2022-10-07T18:29:38.303Z,15.90
2022-10-07T18:32:06.968Z,15.80
2022-10-07T18:34:34.753Z,15.80
2022-10-07T18:37:02.915Z,15.80
2022-10-07T18:39:32.006Z,15.80
2022-10-07T18:41:59.775Z,15.90
2022-10-07T18:44:29.115Z,15.90
2022-10-07T18:46:57.027Z,15.90
2022-10-07T18:49:26.125Z,15.90
2022-10-07T18:51:54.408Z,15.70
2022-10-07T18:54:22.128Z,15.70
2022-10-07T18:56:52.008Z,15.50
2022-10-07T18:59:20.620Z,15.50
2022-10-07T19:01:51.398Z,15.60
2022-10-07T19:04:20.032Z,15.60
2022-10-07T19:06:48.835Z,15.50
2022-10-07T19:09:18.722Z,15.50
2022-10-07T19:11:46.894Z,15.50
2022-10-07T19:14:16.149Z,15.50
2022-10-07T19:16:46.671Z,15.40
2022-10-07T19:19:16.882Z,15.30
2022-10-07T19:21:46.215Z,15.40
2022-10-07T19:24:14.864Z,15.50
2022-10-07T19:26:44.588Z,15.40
2022-10-07T19:29:14.178Z,15.40
2022-10-07T19:31:45.306Z,15.40
2022-10-07T19:34:15.612Z,15.40
2022-10-07T19:36:46.840Z,15.40
2022-10-07T19:39:15.795Z,15.40
2022-10-07T19:41:44.183Z,15.40
2022-10-07T19:44:12.915Z,15.50
2022-10-07T19:46:41.313Z,15.50
2022-10-07T19:49:11.054Z,15.50
2022-10-07T19:51:40.221Z,15.50
2022-10-07T19:54:09.807Z,15.50
2022-10-07T19:56:38.613Z,15.60
2022-10-07T19:59:08.100Z,15.50
2022-10-07T20:01:38.593Z,15.60
2022-10-07T20:04:08.645Z,15.50
2022-10-07T20:06:38.627Z,15.60
2022-10-07T20:09:08.402Z,15.70
2022-10-07T20:11:36.382Z,15.70
2022-10-07T20:14:05.763Z,15.80
2022-10-07T20:16:34.470Z,15.80
2022-10-07T20:19:05.453Z,15.80
2022-10-07T20:21:35.542Z,15.80
2022-10-07T20:24:05.508Z,15.80
2022-10-07T20:26:35.733Z,15.90
2022-10-07T20:29:05.382Z,15.80
2022-10-07T20:31:35.426Z,15.80
2022-10-07T20:34:03.713Z,15.80
2022-10-07T20:36:35.936Z,15.80
2022-10-07T20:39:21.119Z,15.60
2022-10-07T20:42:03.062Z,15.70
2022-10-07T20:44:31.037Z,15.80
2022-10-07T20:46:59.046Z,15.80
2022-10-07T20:49:29.673Z,15.90
2022-10-07T20:52:06.929Z,15.90
2022-10-07T20:54:36.041Z,16.00
2022-10-07T20:57:04.019Z,16.00
2022-10-07T20:59:33.189Z,16.10
2022-10-07T21:02:04.955Z,16.10
2022-10-07T21:04:35.074Z,16.10
2022-10-07T21:07:02.764Z,16.30
2022-10-07T21:09:36.206Z,16.20
2022-10-07T21:12:07.170Z,16.20
2022-10-07T21:14:35.118Z,16.10
2022-10-07T21:17:03.559Z,16.20
2022-10-07T21:19:32.578Z,16.20
2022-10-07T21:22:00.302Z,16.20
2022-10-07T21:24:28.006Z,16.20
2022-10-07T21:26:55.711Z,16.30
2022-10-07T21:29:24.712Z,16.40
2022-10-07T21:31:53.131Z,16.20
2022-10-07T21:34:20.985Z,16.10
2022-10-07T21:36:53.592Z,16.20
2022-10-07T21:39:21.790Z,16.20
2022-10-07T21:41:50.157Z,16.30
2022-10-07T21:44:17.985Z,16.30
2022-10-07T21:46:46.961Z,16.40
2022-10-07T21:49:15.283Z,16.30
2022-10-07T21:51:43.234Z,16.30
2022-10-07T21:54:15.113Z,16.30
2022-10-07T21:56:45.864Z,16.20
2022-10-07T21:59:13.789Z,16.30
2022-10-07T22:01:41.705Z,16.30
2022-10-07T22:04:17.648Z,16.30
2022-10-07T22:07:00.510Z,16.40
2022-10-07T22:09:28.871Z,16.40
2022-10-07T22:11:57.681Z,16.30
2022-10-07T22:14:25.605Z,16.20
2022-10-07T22:16:53.306Z,16.20
2022-10-07T22:19:22.870Z,16.10
2022-10-07T22:21:50.603Z,16.10
2022-10-07T22:24:18.317Z,16.20
2022-10-07T22:26:47.956Z,16.20
2022-10-07T22:29:17.408Z,16.10
2022-10-07T22:31:50.894Z,16.10
2022-10-07T22:34:32.586Z,16.00
2022-10-07T22:37:02.238Z,15.90
2022-10-07T22:39:30.601Z,15.80
2022-10-07T22:41:58.614Z,15.80
2022-10-07T22:44:27.845Z,15.70
2022-10-07T22:46:55.802Z,15.70
2022-10-07T22:49:28.640Z,15.70
2022-10-07T22:51:58.098Z,15.80
2022-10-07T22:54:27.585Z,15.80
2022-10-07T22:56:55.581Z,15.80
2022-10-07T22:59:23.270Z,15.80
2022-10-07T23:01:51.066Z,15.90
2022-10-07T23:04:20.042Z,16.00
2022-10-07T23:06:48.193Z,15.90
2022-10-07T23:09:15.925Z,16.00
2022-10-07T23:11:45.584Z,15.80
2022-10-07T23:14:13.385Z,15.60
2022-10-07T23:16:42.229Z,15.50
2022-10-07T23:19:10.285Z,15.50
2022-10-07T23:21:37.986Z,15.50
2022-10-07T23:24:08.072Z,15.50
2022-10-07T23:26:37.255Z,15.50
2022-10-07T23:29:07.417Z,15.40
2022-10-07T23:31:35.488Z,15.50
2022-10-07T23:34:03.691Z,15.50
2022-10-07T23:36:32.200Z,15.50
2022-10-07T23:39:01.267Z,15.50
2022-10-07T23:41:34.428Z,15.60
2022-10-07T23:44:03.573Z,15.70
2022-10-07T23:46:35.513Z,15.60
2022-10-07T23:49:04.569Z,15.70
2022-10-07T23:51:33.355Z,15.70
2022-10-07T23:54:02.724Z,15.70
2022-10-07T23:56:30.954Z,15.80
2022-10-07T23:58:58.770Z,15.60
